createdAt,value
2023-04-18T00:00:57.128Z,14.50
2023-04-18T00:06:01.568Z,10.67
2023-04-18T00:08:33.141Z,10.43
2023-04-18T00:11:03.953Z,9.65
2023-04-18T00:13:35.635Z,10.75
2023-04-18T00:16:06.380Z,12.32
2023-04-18T00:18:40.405Z,12.98
2023-04-18T00:21:14.036Z,8.63
2023-04-18T00:23:46.851Z,7.82
2023-04-18T00:26:20.060Z,11.23
2023-04-18T00:28:52.698Z,8.57
2023-04-18T00:31:25.685Z,12.77
2023-04-18T00:34:00.230Z,7.80
2023-04-18T00:36:30.843Z,7.78
2023-04-18T00:39:01.774Z,8.00
2023-04-18T00:41:34.120Z,9.35
2023-04-18T00:44:05.661Z,8.70
2023-04-18T00:46:36.322Z,9.73
2023-04-18T00:49:10.473Z,11.18
2023-04-18T00:51:44.455Z,7.22
2023-04-18T00:54:18.069Z,10.30
2023-04-18T00:56:51.028Z,7.07
2023-04-18T01:01:53.978Z,11.20
2023-04-18T01:04:28.663Z,9.02
2023-04-18T01:07:00.432Z,6.82
2023-04-18T01:09:36.452Z,7.72
2023-04-18T01:12:09.758Z,12.15
2023-04-18T01:14:46.373Z,9.20
2023-04-18T01:17:17.960Z,9.23
2023-04-18T01:19:52.676Z,8.85
2023-04-18T01:22:25.198Z,8.55
2023-04-18T01:33:37.118Z,9.82
2023-04-18T01:36:10.688Z,8.90
2023-04-18T01:41:42.296Z,10.55
2023-04-18T01:44:22.847Z,8.05
2023-04-18T01:46:56.711Z,11.88
2023-04-18T01:49:30.541Z,7.28
2023-04-18T01:52:05.538Z,9.75
2023-04-18T01:54:38.537Z,9.15
2023-04-18T01:57:14.745Z,7.25
2023-04-18T01:59:50.238Z,9.85
2023-04-18T02:02:24.849Z,10.07
2023-04-18T02:04:59.732Z,7.60
2023-04-18T02:07:31.037Z,7.85
2023-04-18T02:10:02.048Z,12.60
2023-04-18T02:12:36.585Z,7.63
2023-04-18T02:15:10.369Z,7.97
2023-04-18T02:17:42.210Z,11.52
2023-04-18T02:20:15.424Z,8.98
2023-04-18T02:22:47.660Z,9.05
2023-04-18T02:25:19.439Z,8.48
2023-04-18T02:27:55.217Z,8.43
2023-04-18T02:30:27.535Z,12.27
2023-04-18T02:33:01.342Z,10.75
2023-04-18T02:35:34.714Z,9.70
2023-04-18T02:38:08.268Z,14.23
2023-04-18T02:40:39.334Z,9.73
2023-04-18T02:43:14.023Z,7.68
2023-04-18T02:45:48.636Z,9.23
2023-04-18T02:48:21.699Z,7.00
2023-04-18T02:50:55.393Z,8.27
2023-04-18T02:53:26.574Z,6.35
2023-04-18T02:56:01.156Z,7.15
2023-04-18T02:58:57.119Z,7.82
2023-04-18T03:01:59.891Z,12.85
2023-04-18T03:04:38.908Z,6.30
2023-04-18T03:07:13.065Z,9.38
2023-04-18T03:09:47.696Z,9.63
2023-04-18T03:12:30.235Z,10.85
2023-04-18T03:15:03.861Z,10.60
2023-04-18T03:17:35.783Z,14.10
2023-04-18T03:20:13.145Z,9.18
2023-04-18T03:22:47.064Z,11.57
2023-04-18T03:25:22.772Z,8.45
2023-04-18T03:27:57.069Z,7.63
2023-04-18T03:30:33.130Z,13.35
2023-04-18T03:33:06.264Z,10.52
2023-04-18T03:35:39.249Z,9.60
2023-04-18T03:38:11.520Z,8.63
2023-04-18T03:40:45.047Z,7.57
2023-04-18T03:43:23.613Z,7.53
2023-04-18T03:45:58.844Z,5.90
2023-04-18T03:48:36.433Z,9.13
2023-04-18T03:51:12.709Z,8.55
2023-04-18T03:53:45.554Z,9.43
2023-04-18T03:56:16.205Z,7.60
2023-04-18T03:59:05.993Z,6.65
2023-04-18T04:01:40.921Z,7.97
2023-04-18T04:04:15.938Z,6.18
2023-04-18T04:06:47.032Z,7.75
2023-04-18T04:09:20.791Z,6.25
2023-04-18T04:11:54.029Z,7.03
2023-04-18T04:14:25.189Z,13.30
2023-04-18T04:17:00.748Z,6.05
2023-04-18T04:19:32.741Z,6.43
2023-04-18T04:22:14.052Z,5.65
2023-04-18T04:24:47.233Z,7.90
2023-04-18T04:27:22.147Z,6.93
2023-04-18T04:29:54.383Z,6.80
2023-04-18T04:32:28.892Z,6.03
2023-04-18T04:34:59.967Z,10.00
2023-04-18T04:37:34.144Z,6.68
2023-04-18T04:40:16.048Z,9.40
2023-04-18T04:42:54.611Z,7.05
2023-04-18T04:45:35.544Z,6.03
2023-04-18T04:48:10.215Z,7.13
2023-04-18T04:50:42.674Z,6.30
2023-04-18T04:53:15.413Z,15.93
2023-04-18T04:55:46.635Z,10.68
2023-04-18T04:58:17.987Z,14.55
2023-04-18T05:01:08.952Z,6.80
2023-04-18T05:28:05.280Z,9.30
2023-04-18T05:30:40.107Z,7.57
2023-04-18T05:33:12.778Z,8.73
2023-04-18T05:35:47.552Z,6.95
2023-04-18T05:38:19.852Z,6.63
2023-04-18T05:40:51.788Z,7.38
2023-04-18T05:43:24.488Z,7.47
2023-04-18T05:45:59.443Z,5.93
2023-04-18T05:48:32.683Z,8.88
2023-04-18T05:51:05.352Z,10.23
2023-04-18T05:53:40.409Z,6.53
2023-04-18T05:56:14.086Z,6.18
2023-04-18T05:58:45.512Z,6.30
2023-04-18T06:01:21.869Z,6.75
2023-04-18T06:03:56.261Z,6.32
2023-04-18T06:06:28.356Z,9.68
2023-04-18T06:09:01.198Z,5.57
2023-04-18T06:11:34.305Z,7.67
2023-04-18T06:14:06.673Z,6.68
2023-04-18T06:16:42.771Z,8.63
2023-04-18T06:19:14.262Z,7.03
2023-04-18T06:21:46.880Z,7.78
2023-04-18T06:24:18.772Z,10.93
2023-04-18T06:26:51.436Z,10.45
2023-04-18T06:29:27.574Z,8.13
2023-04-18T06:32:04.642Z,10.15
2023-04-18T06:34:39.295Z,9.82
2023-04-18T06:37:11.152Z,8.63
2023-04-18T06:39:42.521Z,7.70
2023-04-18T06:42:15.987Z,6.68
2023-04-18T06:44:51.929Z,11.13
2023-04-18T06:47:27.667Z,9.23
2023-04-18T06:50:00.142Z,8.48
2023-04-18T06:52:31.188Z,8.05
2023-04-18T06:55:02.516Z,6.05
2023-04-18T06:57:33.328Z,5.22
2023-04-18T07:00:04.804Z,5.45
2023-04-18T07:02:39.935Z,12.13
2023-04-18T07:05:12.233Z,7.47
2023-04-18T07:07:44.593Z,10.75
2023-04-18T07:10:16.152Z,5.38
2023-04-18T07:12:49.707Z,5.97
2023-04-18T07:15:22.115Z,10.82
2023-04-18T07:17:56.248Z,11.50
2023-04-18T07:20:27.326Z,7.80
2023-04-18T07:22:58.299Z,16.77
2023-04-18T07:25:29.650Z,9.13
2023-04-18T07:28:01.100Z,10.52
2023-04-18T07:30:38.405Z,7.30
2023-04-18T07:33:14.387Z,11.77
2023-04-18T07:35:47.509Z,15.10
2023-04-18T07:38:20.678Z,7.97
2023-04-18T07:41:03.737Z,14.23
2023-04-18T07:43:36.384Z,8.75
2023-04-18T07:46:09.266Z,12.95
2023-04-18T07:48:45.347Z,6.75
2023-04-18T07:51:19.164Z,9.55
2023-04-18T07:53:51.679Z,6.80
2023-04-18T07:56:23.620Z,14.63
2023-04-18T07:59:02.468Z,10.02
2023-04-18T08:01:34.292Z,10.05
2023-04-18T08:04:10.235Z,6.15
2023-04-18T08:06:44.220Z,6.43
2023-04-18T08:09:15.679Z,7.32
2023-04-18T08:11:47.736Z,5.22
2023-04-18T08:14:18.735Z,7.15
2023-04-18T08:16:50.481Z,3.70
2023-04-18T08:19:25.692Z,15.05
2023-04-18T08:21:57.021Z,7.72
2023-04-18T08:24:31.002Z,7.85
2023-04-18T08:27:02.337Z,5.43
2023-04-18T08:29:33.196Z,4.30
2023-04-18T08:32:04.007Z,4.03
2023-04-18T08:34:40.295Z,8.65
2023-04-18T08:37:11.419Z,5.85
2023-04-18T08:39:42.342Z,13.20
2023-04-18T08:42:14.150Z,7.85
2023-04-18T08:44:46.206Z,8.55
2023-04-18T08:47:17.242Z,8.55
2023-04-18T08:49:52.694Z,8.90
2023-04-18T08:52:29.393Z,8.20
2023-04-18T08:55:04.430Z,5.07
2023-04-18T08:57:36.175Z,3.75
2023-04-18T09:00:12.281Z,4.43
2023-04-18T09:02:47.529Z,4.22
2023-04-18T09:05:25.433Z,8.30
2023-04-18T09:07:57.839Z,8.13
2023-04-18T09:10:31.940Z,24.38
2023-04-18T09:13:04.683Z,8.32
2023-04-18T09:15:39.044Z,20.60
2023-04-18T09:18:16.611Z,18.38
2023-04-18T09:20:50.620Z,10.68
2023-04-18T09:23:28.181Z,7.10
2023-04-18T09:25:59.770Z,14.10
2023-04-18T09:28:31.770Z,10.07
2023-04-18T09:31:12.347Z,14.40
2023-04-18T09:33:45.164Z,7.43
2023-04-18T09:36:27.614Z,12.93
2023-04-18T09:38:59.757Z,12.07
2023-04-18T09:41:30.993Z,12.07
2023-04-18T09:44:15.932Z,9.18
2023-04-18T09:46:47.662Z,7.93
2023-04-18T09:49:20.595Z,16.80
2023-04-18T09:51:57.017Z,24.90
2023-04-18T09:54:29.903Z,4.93
2023-04-18T09:57:02.052Z,9.52
2023-04-18T09:59:45.123Z,5.18
2023-04-18T10:02:18.861Z,5.75
2023-04-18T10:04:51.290Z,7.40
2023-04-18T10:20:50.215Z,5.40
2023-04-18T10:23:38.519Z,9.10
2023-04-18T10:26:11.908Z,7.20
2023-04-18T10:29:04.230Z,6.35
2023-04-18T10:31:56.447Z,10.18
2023-04-18T10:34:28.329Z,9.25
2023-04-18T10:37:13.054Z,9.02
2023-04-18T10:40:03.128Z,11.93
2023-04-18T10:43:02.728Z,21.75
2023-04-18T10:45:36.689Z,8.23
2023-04-18T10:48:32.922Z,7.25
2023-04-18T10:51:17.002Z,8.93
2023-04-18T10:53:57.230Z,4.18
2023-04-18T10:56:29.254Z,7.53
2023-04-18T10:59:04.377Z,7.80
2023-04-18T11:01:35.697Z,5.85
2023-04-18T11:04:15.701Z,5.80
2023-04-18T11:06:53.418Z,4.07
2023-04-18T11:09:26.474Z,6.78
2023-04-18T11:12:12.605Z,4.15
2023-04-18T11:14:43.480Z,4.43
2023-04-18T11:17:24.257Z,12.13
2023-04-18T11:19:54.720Z,8.60
2023-04-18T11:22:24.874Z,11.95
2023-04-18T11:25:01.142Z,13.23
2023-04-18T11:27:32.869Z,15.07
2023-04-18T11:30:02.957Z,8.85
2023-04-18T11:32:33.196Z,11.15
2023-04-18T11:35:03.508Z,9.82
2023-04-18T11:37:33.661Z,4.47
2023-04-18T11:40:07.799Z,8.02
2023-04-18T11:42:39.208Z,6.05
2023-04-18T11:45:14.513Z,5.85
2023-04-18T11:47:46.555Z,6.80
2023-04-18T11:50:16.915Z,7.50
2023-04-18T11:52:53.411Z,4.22
2023-04-18T11:55:27.808Z,5.43
2023-04-18T11:57:59.090Z,10.20
2023-04-18T12:00:42.089Z,5.28
2023-04-18T12:03:20.407Z,4.07
2023-04-18T12:05:51.428Z,5.90
2023-04-18T12:08:23.217Z,3.10
2023-04-18T12:10:57.396Z,14.02
2023-04-18T12:13:28.980Z,7.20
2023-04-18T12:15:59.210Z,7.07
2023-04-18T12:18:30.110Z,8.82
2023-04-18T12:21:02.232Z,7.43
2023-04-18T12:23:34.036Z,10.60
2023-04-18T12:26:09.163Z,11.10
2023-04-18T12:28:39.289Z,4.72
2023-04-18T12:31:09.660Z,7.63
2023-04-18T12:33:39.836Z,4.78
2023-04-18T12:36:11.374Z,5.93
2023-04-18T12:38:41.497Z,8.35
2023-04-18T12:41:14.184Z,11.70
2023-04-18T12:43:44.319Z,18.30
2023-04-18T12:46:14.484Z,8.38
2023-04-18T12:48:44.588Z,5.80
2023-04-18T12:51:14.712Z,5.40
2023-04-18T12:53:44.826Z,11.35
2023-04-18T12:56:18.435Z,10.45
2023-04-18T12:58:48.617Z,3.72
2023-04-18T13:01:18.845Z,6.45
2023-04-18T13:03:59.890Z,10.63
2023-04-18T13:06:38.879Z,7.72
2023-04-18T13:09:09.491Z,11.80
2023-04-18T13:11:42.213Z,5.82
2023-04-18T13:14:12.514Z,5.40
2023-04-18T13:16:44.036Z,4.45
2023-04-18T13:19:14.426Z,4.57
2023-04-18T13:21:44.624Z,5.50
2023-04-18T13:24:14.782Z,7.22
2023-04-18T13:26:47.521Z,10.88
2023-04-18T13:29:17.626Z,4.32
2023-04-18T13:31:47.747Z,8.48
2023-04-18T13:34:17.922Z,8.15
2023-04-18T13:36:48.189Z,13.15
2023-04-18T13:39:19.009Z,10.75
2023-04-18T13:41:51.809Z,6.00
2023-04-18T13:44:21.942Z,5.47
2023-04-18T13:46:52.039Z,6.00
2023-04-18T13:49:22.136Z,15.65
2023-04-18T13:51:53.675Z,6.57
2023-04-18T13:54:23.782Z,7.50
2023-04-18T13:56:57.356Z,10.13
2023-04-18T13:59:27.537Z,10.30
2023-04-18T14:01:58.323Z,16.83
2023-04-18T14:04:28.912Z,17.55
2023-04-18T14:06:59.296Z,4.07
2023-04-18T14:09:29.924Z,9.18
2023-04-18T14:12:02.704Z,3.50
2023-04-18T14:14:32.947Z,13.90
2023-04-18T14:17:03.084Z,12.70
2023-04-18T14:19:33.350Z,9.40
2023-04-18T14:22:03.539Z,16.45
2023-04-18T14:24:33.714Z,3.90
2023-04-18T14:27:06.546Z,6.07
2023-04-18T14:29:36.750Z,2.75
2023-04-18T14:32:07.333Z,5.22
2023-04-18T14:34:38.847Z,7.03
2023-04-18T14:37:09.806Z,13.27
2023-04-18T14:39:40.289Z,10.70
2023-04-18T14:42:13.177Z,9.82
2023-04-18T14:44:43.818Z,4.97
2023-04-18T14:47:13.979Z,7.57
2023-04-18T14:49:44.241Z,8.30
2023-04-18T14:52:14.426Z,8.05
2023-04-18T14:54:44.475Z,6.50
2023-04-18T14:57:17.210Z,10.75
2023-04-18T14:59:47.370Z,6.93
2023-04-18T15:02:17.696Z,7.72
2023-04-18T15:04:48.008Z,1.30
2023-04-18T15:07:18.379Z,8.98
2023-04-18T15:09:48.573Z,3.08
2023-04-18T15:12:21.491Z,12.45
2023-04-18T15:14:51.661Z,22.58
2023-04-18T15:17:22.122Z,14.00
2023-04-18T15:19:52.320Z,8.82
2023-04-18T15:22:23.081Z,3.78
2023-04-18T15:24:53.342Z,7.82
2023-04-18T15:27:26.069Z,8.02
2023-04-18T15:29:56.526Z,9.70
2023-04-18T15:32:26.841Z,21.35
2023-04-18T15:34:57.037Z,9.00
2023-04-18T15:37:28.104Z,9.38
2023-04-18T15:39:58.230Z,6.68
2023-04-18T15:42:31.065Z,6.55
2023-04-18T15:45:01.323Z,9.63
2023-04-18T15:47:31.905Z,6.32
2023-04-18T15:50:03.641Z,7.30
2023-04-18T15:52:33.787Z,6.75
2023-04-18T15:55:05.084Z,6.78
2023-04-18T15:57:37.935Z,3.55
2023-04-18T16:00:11.947Z,4.38
2023-04-18T16:02:42.184Z,3.78
2023-04-18T16:05:12.844Z,6.10
2023-04-18T16:07:43.358Z,18.70
2023-04-18T16:10:15.475Z,7.45
2023-04-18T16:12:48.420Z,6.18
2023-04-18T16:15:18.875Z,12.55
2023-04-18T16:17:49.219Z,12.82
2023-04-18T16:20:20.514Z,12.43
2023-04-18T16:22:50.657Z,14.23
2023-04-18T16:25:20.799Z,4.10
2023-04-18T16:27:53.682Z,17.80
2023-04-18T16:30:24.346Z,9.15
2023-04-18T16:32:54.617Z,6.95
2023-04-18T16:35:25.059Z,10.90
2023-04-18T16:37:55.152Z,9.88
2023-04-18T16:40:30.609Z,13.77
2023-04-18T16:43:03.779Z,19.25
2023-04-18T16:45:34.100Z,10.90
2023-04-18T16:48:04.412Z,9.18
2023-04-18T16:50:34.579Z,16.58
2023-04-18T16:53:04.798Z,8.98
2023-04-18T16:55:34.963Z,16.75
2023-04-18T16:58:07.749Z,10.57
2023-04-18T17:00:39.889Z,13.90
2023-04-18T17:03:10.318Z,10.35
2023-04-18T17:05:40.821Z,12.02
2023-04-18T17:08:11.093Z,12.30
2023-04-18T17:10:41.331Z,12.45
2023-04-18T17:13:14.225Z,14.10
2023-04-18T17:15:44.584Z,13.32
2023-04-18T17:18:14.865Z,5.80
2023-04-18T17:20:47.613Z,11.13
2023-04-18T17:23:17.860Z,6.70
2023-04-18T17:25:48.048Z,10.63
2023-04-18T17:28:21.422Z,11.80
2023-04-18T17:30:52.182Z,6.30
2023-04-18T17:33:22.625Z,9.50
2023-04-18T17:35:52.821Z,8.77
2023-04-18T17:38:23.007Z,13.05
2023-04-18T17:41:02.804Z,13.13
2023-04-18T17:43:35.554Z,14.18
2023-04-18T17:46:05.789Z,11.50
2023-04-18T17:48:36.064Z,11.32
2023-04-18T17:51:06.467Z,12.80
2023-04-18T17:53:39.449Z,15.18
2023-04-18T17:56:09.716Z,5.72
2023-04-18T17:58:42.552Z,16.75
2023-04-18T18:01:19.085Z,14.50
2023-04-18T18:03:50.047Z,13.98
2023-04-18T18:06:20.475Z,12.68
2023-04-18T18:08:50.766Z,11.85
2023-04-18T18:11:21.672Z,13.27
2023-04-18T18:13:55.819Z,8.63
2023-04-18T18:16:26.429Z,24.45
2023-04-18T18:18:56.668Z,51.53
2023-04-18T18:21:27.421Z,69.32
2023-04-18T18:23:57.655Z,57.70
2023-04-18T18:26:29.591Z,52.08
2023-04-18T18:29:08.957Z,50.00
2023-04-18T18:31:39.257Z,46.80
2023-04-18T18:34:09.595Z,36.22
2023-04-18T18:36:40.393Z,35.65
2023-04-18T18:39:11.191Z,27.85
2023-04-18T18:41:41.703Z,25.02
2023-04-18T18:44:15.008Z,25.42
2023-04-18T18:46:45.293Z,21.88
2023-04-18T18:49:15.663Z,19.30
2023-04-18T18:51:46.137Z,24.55
2023-04-18T18:54:16.338Z,25.15
2023-04-18T18:56:46.885Z,11.77
2023-04-18T18:59:20.854Z,16.77
2023-04-18T19:01:51.089Z,14.85
2023-04-18T19:04:21.339Z,41.38
2023-04-18T19:06:51.712Z,29.92
2023-04-18T19:09:21.942Z,55.13
2023-04-18T19:11:52.118Z,49.63
2023-04-18T19:14:24.964Z,26.80
2023-04-18T19:16:56.178Z,14.50
2023-04-18T19:19:26.397Z,9.15
2023-04-18T19:22:01.305Z,10.85
2023-04-18T19:24:32.150Z,9.48
2023-04-18T19:27:03.097Z,12.45
2023-04-18T19:29:36.151Z,11.68
2023-04-18T19:32:06.578Z,16.52
2023-04-18T19:34:36.757Z,10.95
2023-04-18T19:37:07.528Z,10.13
2023-04-18T19:39:37.658Z,9.07
2023-04-18T19:42:08.701Z,9.10
2023-04-18T19:44:41.571Z,12.90
2023-04-18T19:47:11.789Z,10.57
2023-04-18T19:49:42.279Z,10.73
2023-04-18T19:52:12.421Z,15.88
2023-04-18T19:54:42.604Z,16.10
2023-04-18T19:57:12.873Z,23.30
2023-04-18T19:59:45.763Z,14.10
2023-04-18T20:02:15.902Z,10.75
2023-04-18T20:04:47.994Z,18.83
2023-04-18T20:07:18.395Z,12.48
2023-04-18T20:09:48.577Z,15.65
2023-04-18T20:12:18.751Z,12.45
2023-04-18T20:14:51.580Z,11.90
2023-04-18T20:17:23.979Z,15.10
2023-04-18T20:19:57.343Z,9.60
2023-04-18T20:22:27.919Z,14.70
2023-04-18T20:24:59.176Z,9.23
2023-04-18T20:27:29.300Z,14.27
2023-04-18T20:30:02.053Z,11.75
2023-04-18T20:32:32.381Z,17.10
2023-04-18T20:35:03.010Z,13.75
2023-04-18T20:37:37.025Z,15.70
2023-04-18T20:40:11.369Z,15.80
2023-04-18T20:42:41.680Z,36.90
2023-04-18T20:45:15.073Z,28.05
2023-04-18T20:47:45.909Z,34.00
2023-04-18T20:50:18.387Z,19.17
2023-04-18T20:52:48.561Z,11.85
2023-04-18T20:55:19.851Z,26.63
2023-04-18T20:57:50.117Z,25.88
2023-04-18T21:00:23.615Z,26.35
2023-04-18T21:02:53.990Z,17.38
2023-04-18T21:05:24.316Z,18.00
2023-04-18T21:07:54.514Z,16.33
2023-04-18T21:10:25.048Z,14.95
2023-04-18T21:12:55.264Z,9.93
2023-04-18T21:15:28.402Z,14.32
2023-04-18T21:17:59.128Z,12.43
2023-04-18T21:20:29.683Z,9.30
2023-04-18T21:22:59.978Z,10.98
2023-04-18T21:25:30.199Z,13.20
2023-04-18T21:28:00.444Z,13.50
2023-04-18T21:30:33.541Z,14.95
2023-04-18T21:33:03.852Z,14.40
2023-04-18T21:35:34.116Z,14.43
2023-04-18T21:38:04.295Z,17.08
2023-04-18T21:40:34.520Z,12.00
2023-04-18T21:43:04.707Z,14.63
2023-04-18T21:45:37.750Z,17.13
2023-04-18T21:48:08.792Z,15.43
2023-04-18T21:50:39.002Z,30.17
2023-04-18T21:53:09.170Z,25.25
2023-04-18T21:55:39.329Z,27.55
2023-04-18T21:58:09.506Z,19.92
2023-04-18T22:00:42.585Z,21.00
2023-04-18T22:03:13.086Z,9.95
2023-04-18T22:05:43.392Z,23.35
2023-04-18T22:08:15.116Z,13.32
2023-04-18T22:10:45.409Z,16.52
2023-04-18T22:13:16.814Z,12.90
2023-04-18T22:15:50.211Z,11.27
2023-04-18T22:18:22.155Z,9.98
2023-04-18T22:20:53.895Z,12.07
2023-04-18T22:23:24.132Z,16.38
2023-04-18T22:25:54.353Z,13.65
2023-04-18T22:28:24.960Z,13.60
2023-04-18T22:30:58.196Z,8.85
2023-04-18T22:33:28.666Z,11.02
2023-04-18T22:35:58.910Z,17.27
2023-04-18T22:38:32.085Z,11.65
2023-04-18T22:41:02.281Z,19.00
2023-04-18T22:43:32.438Z,9.95
2023-04-18T22:46:05.976Z,14.25
2023-04-18T22:48:36.601Z,17.95
2023-04-18T22:51:07.047Z,10.90
2023-04-18T22:53:37.236Z,12.25
2023-04-18T22:56:07.785Z,9.57
2023-04-18T22:58:37.991Z,9.32
2023-04-18T23:01:10.937Z,15.02
2023-04-18T23:03:41.273Z,11.18
2023-04-18T23:06:11.543Z,12.75
2023-04-18T23:08:41.724Z,13.48
2023-04-18T23:11:11.934Z,9.63
2023-04-18T23:13:42.069Z,10.70
2023-04-18T23:16:14.905Z,17.73
2023-04-18T23:18:45.072Z,7.70
2023-04-18T23:21:15.336Z,11.82
2023-04-18T23:23:45.463Z,11.57
2023-04-18T23:26:16.882Z,10.05
2023-04-18T23:28:47.177Z,15.63
2023-04-18T23:31:20.181Z,14.40
2023-04-18T23:33:50.352Z,17.30
2023-04-18T23:36:20.572Z,18.33
2023-04-18T23:38:50.783Z,11.20
2023-04-18T23:41:21.038Z,12.40
2023-04-18T23:43:51.270Z,17.20
2023-04-18T23:46:24.090Z,21.02
2023-04-18T23:48:54.416Z,14.68
2023-04-18T23:51:24.592Z,12.73
2023-04-18T23:53:54.725Z,16.95
2023-04-18T23:56:24.911Z,14.80
2023-04-18T23:58:55.082Z,19.83
